Decoded Metar for VVTS (HO CHI MINH CITY in VIET NAM) (IATA:SGN) | Meteo·Mobile Aviation Weather
aviador You're here:

VVTS Decoded Metar

HO CHI MINH CITY in VIET NAM
Report Time2019-07-24 04:00:00
UTC Time2019-07-24 04:28:44
Flight Rules mvfr MVFR
WindVRB at 03 kt
Visibility9999 m
Phenomena:N/A
Clouds:Broken 017 Hf
Expected CloudBase > 2,000 ft AGL from Temp-Dew spread
Ceiling1,700 ft
Temp31°C (ISA +16)
Dew Point26°C (75% RH)
Heat Index39.2°C
QNH1009 hPa
Density Alt2,480 ft
Elevation62 ft
Report Wrong Elevation
Raw Report
VVTS 240400Z VRB03KT 9999 BKN017 31/26 Q1009 NOSIG=

Extra information for VVTS:More info

Metar Taf Metar & Taf Last 4 Metars F.Rules Stats Wind Profile Meteogram Temp Stats Airport Information Weather charts Add Link Nearby VenuesMetar ALERT Operation Metar Decoded Social comments